Currently 62°F in Perris, California, USA
62°F
66°F / 61°F
calm
0.00"
Friday, September 21, 2018 6:44 AM PDT

Perris, California Weather Summary
Last 36 Hours

Temperature Winds Hourly Humidity Dewpoint
Time Report Norm Report Norm Max Gusts Precip. Rpt. Norm Rpt. Norm Pressure
1Fri 06:44 AM  61.7°F  61°F  calm  1 mph  none  0.00"  95%  76%  60°F  53°F  N/A
Fri 06:00 AM  61.6°F  62°F  calm  1 mph  none  0.00"  96%  76%  60°F  53°F  N/A
3Fri 05:36 AM  61.3°F  62°F  calm  1 mph  none  ----  95%  75%  60°F  53°F  N/A
Fri 05:00 AM  62.0°F  62°F  calm  1 mph  none  0.00"  95%  74%  61°F  54°F  N/A
Fri 04:00 AM  62.3°F  63°F  calm  1 mph  none  0.00"  95%  72%  61°F  54°F  N/A
Fri 03:00 AM  62.8°F  64°F  calm  1 mph  3 mph  0.00"  93%  71%  61°F  54°F  N/A
Fri 02:00 AM  63.4°F  65°F  2 mph S  1 mph  6 mph  0.00"  91%  69%  61°F  55°F  N/A
Fri 01:00 AM  64.5°F  67°F  3 mph NW  1 mph  6 mph  0.00"  89%  67%  61°F  55°F  N/A
2Fri 12:01 AM  65.8°F  68°F  4 mph W  1 mph  6 mph  ----  86%  65%  61°F  55°F  N/A
Fri 12:00 AM  65.8°F  68°F  3 mph W  1 mph  7 mph  0.00"  86%  65%  61°F  55°F  N/A
Thu 11:00 PM  67.2°F  69°F  2 mph W  2 mph  8 mph  0.00"  83%  62%  62°F  55°F  N/A
Thu 10:00 PM  69.0°F  71°F  5 mph W  2 mph  6 mph  0.00"  76%  59%  61°F  55°F  N/A
Thu 09:00 PM  69.0°F  73°F  4 mph SE  2 mph  10 mph  0.00"  68%  54%  58°F  55°F  N/A
Thu 08:00 PM  71.5°F  75°F  4 mph S  3 mph  11 mph  0.00"  62%  49%  57°F  54°F  N/A
Thu 07:00 PM  75.7°F  78°F  3 mph S  4 mph  12 mph  0.00"  61%  41%  61°F  52°F  N/A
Thu 06:00 PM  83.0°F  83°F  4 mph W  6 mph  13 mph  0.00"  51%  33%  63°F  50°F  N/A
Thu 05:00 PM  87.7°F  86°F  6 mph W  6 mph  14 mph  0.00"  43%  30%  62°F  49°F  N/A
Thu 04:00 PM  91.1°F  88°F  6 mph NW  6 mph  16 mph  0.00"  36%  27%  60°F  49°F  N/A
Thu 03:00 PM  91.5°F  88°F  7 mph NW  6 mph  17 mph  0.00"  36%  26%  60°F  48°F  N/A
Thu 02:00 PM  93.6°F  88°F  5 mph NW  5 mph  12 mph  0.00"  29%  27%  56°F  48°F  N/A
Thu 01:00 PM  91.7°F  86°F  3 mph W  4 mph  12 mph  0.00"  30%  29%  55°F  49°F  N/A
Thu 12:00 PM  90.4°F  84°F  4 mph SE  3 mph  9 mph  0.00"  34%  32%  57°F  50°F  N/A
Thu 11:00 AM  85.5°F  80°F  3 mph NW  3 mph  6 mph  0.00"  45%  40%  61°F  53°F  N/A
Thu 10:00 AM  79.7°F  75°F  calm  2 mph  4 mph  0.00"  50%  50%  59°F  55°F  N/A
Thu 09:00 AM  71.8°F  69°F  calm  2 mph  none  0.00"  59%  64%  56°F  56°F  N/A
Thu 08:00 AM  63.2°F  63°F  calm  1 mph  2 mph  0.00"  76%  76%  55°F  55°F  N/A
Thu 07:00 AM  61.0°F  61°F  calm  1 mph  none  0.00"  79%  77%  54°F  54°F  N/A
Thu 06:00 AM  61.9°F  62°F  calm  1 mph  5 mph  0.00"  78%  76%  55°F  54°F  N/A
Thu 05:00 AM  61.7°F  62°F  3 mph S  1 mph  5 mph  0.00"  79%  75%  55°F  54°F  N/A
Thu 04:00 AM  63.9°F  63°F  calm  1 mph  4 mph  0.00"  76%  73%  56°F  54°F  N/A
Thu 03:00 AM  64.2°F  64°F  calm  1 mph  3 mph  0.00"  76%  71%  56°F  55°F  N/A
Thu 02:00 AM  64.3°F  66°F  calm  1 mph  none  0.00"  75%  70%  56°F  55°F  N/A
Thu 01:00 AM  66.0°F  67°F  calm  1 mph  4 mph  0.00"  73%  68%  57°F  55°F  N/A
Thu 12:00 AM  68.2°F  68°F  calm  1 mph  none  0.00"  69%  65%  57°F  55°F  N/A
Wed 11:00 PM  68.8°F  69°F  calm  2 mph  3 mph  0.00"  65%  63%  56°F  55°F  N/A
Wed 10:00 PM  70.9°F  71°F  calm  2 mph  3 mph  0.00"  60%  59%  56°F  55°F  N/A
Wed 09:00 PM  72.5°F  73°F  calm  2 mph  6 mph  0.00"  57%  55%  56°F  55°F  N/A
Wed 08:00 PM  75.7°F  75°F  4 mph W  3 mph  9 mph  0.00"  53%  49%  57°F  54°F  N/A
Wed 07:00 PM  78.6°F  78°F  5 mph NW  4 mph  15 mph  0.00"  48%  42%  57°F  53°F  N/A

  1. Current weather data. No green row appears if the current weather data is also the high or low for the current day.
  2. High temperature for the current day.
  3. Low temperature for the current day.

The Perris, California weather pages are a service of WeatherCurrents. Perris is located in Southern California's Inland Empire, south of Riverside and north of Sun City, along the Interstate 215 freeway.
Copyright ©Fri Sep 21 06:45:37 PDT 2018  WeatherCurrents. All rights reserved. - Submit questions and comments - Privacy Policy

This page automatically refreshes every 10 minutes.